createdAt,value
2023-05-22T00:03:36.587Z,99734.53
2023-05-22T00:07:52.947Z,99733.28
2023-05-22T00:12:09.281Z,99733.28
2023-05-22T00:16:25.602Z,99738.88
2023-05-22T00:20:42.441Z,99745.38
2023-05-22T00:24:59.116Z,99740.66
2023-05-22T00:29:15.398Z,99735.97
2023-05-22T00:33:31.716Z,99744.88
2023-05-22T00:37:47.915Z,99741.66
2023-05-22T00:42:04.388Z,99733.69
2023-05-22T00:46:24.720Z,99729.03
2023-05-22T00:50:41.162Z,99733.47
2023-05-22T00:54:57.675Z,99723.66
2023-05-22T00:59:14.138Z,99727.59
2023-05-22T01:03:32.453Z,99728.72
2023-05-22T01:07:48.893Z,99721.28
2023-05-22T01:12:34.578Z,99720.03
2023-05-22T01:17:03.398Z,99723.19
2023-05-22T01:21:58.338Z,99725.94
2023-05-22T01:26:29.307Z,99715.53
2023-05-22T01:31:00.978Z,99715.91
2023-05-22T01:35:21.361Z,99711.50
2023-05-22T01:39:38.587Z,99721.34
2023-05-22T01:43:54.945Z,99733.50
2023-05-22T01:48:12.259Z,99721.63
2023-05-22T01:53:13.125Z,99712.97
2023-05-22T01:57:43.778Z,99714.47
2023-05-22T02:02:05.339Z,99706.19
2023-05-22T02:06:21.742Z,99713.25
2023-05-22T02:10:39.374Z,99710.59
2023-05-22T02:14:55.800Z,99711.59
2023-05-22T02:19:12.174Z,99701.03
2023-05-22T02:23:31.435Z,99699.56
2023-05-22T02:27:49.925Z,99701.72
2023-05-22T02:32:06.622Z,99703.13
2023-05-22T02:36:23.209Z,99703.81
2023-05-22T02:40:40.075Z,99697.16
2023-05-22T02:44:59.508Z,99694.00
2023-05-22T02:49:15.864Z,99698.88
2023-05-22T02:53:33.867Z,99694.94
2023-05-22T02:57:50.065Z,99692.53
2023-05-22T03:02:06.664Z,99694.41
2023-05-22T03:06:23.444Z,99695.16
2023-05-22T03:10:39.952Z,99701.19
2023-05-22T03:14:56.342Z,99698.09
2023-05-22T03:19:14.180Z,99700.84
2023-05-22T03:23:31.028Z,99703.13
2023-05-22T03:27:47.313Z,99695.50
2023-05-22T03:32:04.058Z,99703.63
2023-05-22T03:36:21.790Z,99706.41
2023-05-22T03:40:38.220Z,99709.16
2023-05-22T03:44:54.770Z,99697.94
2023-05-22T03:49:11.064Z,99695.16
2023-05-22T03:53:27.278Z,99696.44
2023-05-22T03:57:43.456Z,99698.56
2023-05-22T04:02:01.539Z,99697.09
2023-05-22T04:06:21.880Z,99692.72
2023-05-22T04:10:39.094Z,99693.06
2023-05-22T04:14:55.580Z,99696.44
2023-05-22T04:19:12.683Z,99685.38
2023-05-22T04:23:28.992Z,99686.50
2023-05-22T04:27:45.140Z,99679.72
2023-05-22T04:32:01.543Z,99681.75
2023-05-22T04:36:18.058Z,99678.47
2023-05-22T04:40:34.580Z,99676.59
2023-05-22T04:44:53.319Z,99673.59
2023-05-22T04:49:09.584Z,99685.31
2023-05-22T04:53:27.637Z,99677.94
2023-05-22T04:57:45.386Z,99673.75
2023-05-22T05:02:01.594Z,99678.63
2023-05-22T05:06:18.264Z,99672.53
2023-05-22T05:10:35.042Z,99678.34
2023-05-22T05:14:51.393Z,99676.53
2023-05-22T05:19:07.557Z,99679.53
2023-05-22T05:23:23.816Z,99670.91
2023-05-22T05:27:40.595Z,99679.00
2023-05-22T05:31:56.873Z,99681.22
2023-05-22T05:36:13.360Z,99674.16
2023-05-22T05:40:29.603Z,99679.13
2023-05-22T05:44:45.882Z,99674.53
2023-05-22T05:49:06.394Z,99674.28
2023-05-22T05:53:22.706Z,99676.09
2023-05-22T05:57:38.931Z,99671.47
2023-05-22T06:01:55.114Z,99662.09
2023-05-22T06:06:12.172Z,99662.53
2023-05-22T06:10:28.361Z,99662.09
2023-05-22T06:14:44.572Z,99663.00
2023-05-22T06:19:01.084Z,99669.81
2023-05-22T06:23:17.552Z,99665.06
2023-05-22T06:27:33.783Z,99670.97
2023-05-22T06:31:49.984Z,99679.97
2023-05-22T06:36:07.343Z,99682.34
2023-05-22T06:40:23.574Z,99687.87
2023-05-22T06:44:39.740Z,99688.19
2023-05-22T06:48:56.336Z,99688.31
2023-05-22T06:53:12.883Z,99683.84
2023-05-22T06:57:29.147Z,99695.09
2023-05-22T07:01:45.469Z,99696.41
2023-05-22T07:06:02.454Z,99692.69
2023-05-22T07:10:18.852Z,99693.16
2023-05-22T07:14:35.110Z,99696.69
2023-05-22T07:18:51.455Z,99693.09
2023-05-22T07:23:09.093Z,99679.69
2023-05-22T07:27:25.288Z,99684.25
2023-05-22T07:31:42.543Z,99687.47
2023-05-22T07:35:58.764Z,99677.62
2023-05-22T07:40:15.055Z,99680.06
2023-05-22T07:44:31.554Z,99672.19
2023-05-22T07:48:47.705Z,99678.69
2023-05-22T07:53:04.749Z,99684.44
2023-05-22T07:57:21.447Z,99677.50
2023-05-22T08:01:41.971Z,99672.72
2023-05-22T08:05:58.409Z,99674.44
2023-05-22T08:10:17.386Z,99670.28
2023-05-22T08:14:33.654Z,99673.50
2023-05-22T08:18:50.658Z,99660.81
2023-05-22T08:23:06.840Z,99659.91
2023-05-22T08:27:23.456Z,99673.59
2023-05-22T08:31:39.780Z,99663.16
2023-05-22T08:35:56.017Z,99661.78
2023-05-22T08:40:15.772Z,99660.56
2023-05-22T08:44:32.030Z,99665.66
2023-05-22T08:48:49.002Z,99661.00
2023-05-22T08:53:07.519Z,99659.00
2023-05-22T08:57:24.542Z,99654.31
2023-05-22T09:01:40.851Z,99651.31
2023-05-22T09:05:57.191Z,99660.94
2023-05-22T09:10:13.928Z,99658.47
2023-05-22T09:14:38.020Z,99653.66
2023-05-22T09:18:54.249Z,99657.72
2023-05-22T09:23:15.662Z,99650.47
2023-05-22T09:27:32.233Z,99652.63
2023-05-22T09:31:48.964Z,99645.56
2023-05-22T09:36:08.980Z,99644.06
2023-05-22T09:40:27.260Z,99647.31
2023-05-22T09:44:48.087Z,99645.84
2023-05-22T09:49:04.756Z,99633.78
2023-05-22T09:53:25.815Z,99636.44
2023-05-22T09:57:46.575Z,99628.50
2023-05-22T10:02:03.643Z,99626.03
2023-05-22T10:06:21.647Z,99624.44
2023-05-22T10:10:39.543Z,99614.88
2023-05-22T10:14:56.324Z,99617.75
2023-05-22T10:19:13.738Z,99619.63
2023-05-22T10:23:30.412Z,99609.81
2023-05-22T10:27:46.633Z,99621.19
2023-05-22T10:32:05.697Z,99606.69
2023-05-22T10:36:52.240Z,99610.00
2023-05-22T10:41:09.731Z,99606.31
2023-05-22T10:45:30.382Z,99586.38
2023-05-22T10:49:46.978Z,99592.03
2023-05-22T10:54:05.574Z,99593.38
2023-05-22T10:58:32.722Z,99592.81
2023-05-22T11:02:50.039Z,99585.19
2023-05-22T11:07:07.985Z,99593.94
2023-05-22T11:11:26.912Z,99584.66
2023-05-22T11:15:49.511Z,99582.22
2023-05-22T11:20:06.103Z,99571.97
2023-05-22T11:24:22.410Z,99561.69
2023-05-22T11:28:39.205Z,99571.34
2023-05-22T11:32:57.480Z,99566.47
2023-05-22T11:37:13.825Z,99563.66
2023-05-22T11:41:34.449Z,99566.81
2023-05-22T11:45:50.780Z,99563.25
2023-05-22T11:50:10.113Z,99549.31
2023-05-22T11:54:26.464Z,99540.84
2023-05-22T11:58:42.701Z,99548.44
2023-05-22T12:02:59.144Z,99546.03
2023-05-22T12:07:15.615Z,99536.00
2023-05-22T12:11:36.563Z,99532.03
2023-05-22T12:15:55.342Z,99527.91
2023-05-22T12:20:14.760Z,99518.31
2023-05-22T12:24:42.359Z,99517.56
2023-05-22T12:28:59.653Z,99523.25
2023-05-22T12:33:15.853Z,99514.84
2023-05-22T12:41:49.812Z,99508.38
2023-05-22T12:46:06.099Z,99505.97
2023-05-22T12:50:22.325Z,99500.00
2023-05-22T12:54:38.465Z,99496.34
2023-05-22T12:58:54.781Z,99490.25
2023-05-22T13:03:12.211Z,99489.78
2023-05-22T13:07:28.453Z,99487.41
2023-05-22T13:11:44.998Z,99477.28
2023-05-22T13:16:01.235Z,99481.06
2023-05-22T13:20:17.503Z,99476.22
2023-05-22T13:24:33.671Z,99476.63
2023-05-22T13:28:50.788Z,99472.31
2023-05-22T13:33:07.307Z,99466.50
2023-05-22T13:37:23.570Z,99471.44
2023-05-22T13:41:39.876Z,99453.56
2023-05-22T13:45:56.181Z,99464.91
2023-05-22T13:50:12.425Z,99463.22
2023-05-22T13:54:28.866Z,99454.81
2023-05-22T13:58:45.073Z,99456.88
2023-05-22T14:03:01.728Z,99447.69
2023-05-22T14:07:18.128Z,99445.47
2023-05-22T14:11:34.532Z,99444.06
2023-05-22T14:15:51.038Z,99443.72
2023-05-22T14:20:07.938Z,99442.59
2023-05-22T14:24:24.183Z,99435.09
2023-05-22T14:28:40.456Z,99426.75
2023-05-22T14:32:56.698Z,99434.41
2023-05-22T14:37:13.262Z,99435.09
2023-05-22T14:41:29.552Z,99428.78
2023-05-22T14:45:46.085Z,99433.91
2023-05-22T14:50:14.656Z,99427.66
2023-05-22T14:54:35.725Z,99423.19
2023-05-22T14:58:51.918Z,99431.25
2023-05-22T15:03:08.221Z,99426.97
2023-05-22T15:07:29.392Z,99425.69
2023-05-22T15:11:56.318Z,99426.06
2023-05-22T15:16:12.584Z,99423.50
2023-05-22T15:20:29.482Z,99416.53
2023-05-22T15:24:48.376Z,99427.78
2023-05-22T15:29:04.773Z,99424.84
2023-05-22T15:33:22.044Z,99427.84
2023-05-22T15:37:38.217Z,99424.19
2023-05-22T15:42:05.331Z,99420.59
2023-05-22T15:46:22.950Z,99422.16
2023-05-22T15:50:39.190Z,99418.06
2023-05-22T15:54:57.089Z,99415.69
2023-05-22T15:59:13.516Z,99418.94
2023-05-22T16:03:29.834Z,99430.22
2023-05-22T16:07:46.259Z,99432.69
2023-05-22T16:12:03.043Z,99421.53
2023-05-22T16:16:19.647Z,99423.94
2023-05-22T16:20:36.383Z,99423.09
2023-05-22T16:24:53.228Z,99425.50
2023-05-22T16:29:09.791Z,99432.62
2023-05-22T16:33:26.750Z,99430.63
2023-05-22T16:37:43.189Z,99439.78
2023-05-22T16:42:00.816Z,99440.47
2023-05-22T16:46:17.767Z,99435.63
2023-05-22T16:50:34.182Z,99444.41
2023-05-22T16:54:51.379Z,99447.16
2023-05-22T16:59:07.762Z,99437.91
2023-05-22T17:03:25.136Z,99442.31
2023-05-22T17:07:41.623Z,99445.75
2023-05-22T17:11:58.054Z,99450.66
2023-05-22T17:16:14.622Z,99447.72
2023-05-22T17:20:33.229Z,99448.91
2023-05-22T17:24:49.680Z,99444.09
2023-05-22T17:29:06.257Z,99445.25
2023-05-22T17:33:23.113Z,99442.94
2023-05-22T17:37:39.499Z,99440.94
2023-05-22T17:41:56.068Z,99442.31
2023-05-22T17:46:13.095Z,99439.38
2023-05-22T17:50:29.304Z,99442.06
2023-05-22T17:54:45.850Z,99447.06
2023-05-22T17:59:02.215Z,99443.28
2023-05-22T18:03:21.901Z,99446.38
2023-05-22T18:07:38.330Z,99449.00
2023-05-22T18:11:54.759Z,99450.66
2023-05-22T18:16:11.058Z,99459.13
2023-05-22T18:20:27.398Z,99462.13
2023-05-22T18:24:43.724Z,99471.22
2023-05-22T18:28:59.989Z,99477.84
2023-05-22T18:33:16.961Z,99466.16
2023-05-22T18:37:33.216Z,99470.84
2023-05-22T18:41:49.610Z,99475.25
2023-05-22T18:46:06.360Z,99477.69
2023-05-22T18:50:23.763Z,99470.62
2023-05-22T18:54:40.126Z,99475.44
2023-05-22T18:58:56.300Z,99477.22
2023-05-22T19:03:12.689Z,99478.50
2023-05-22T19:07:29.015Z,99478.03
2023-05-22T19:11:45.188Z,99477.16
2023-05-22T19:16:01.518Z,99479.84
2023-05-22T19:20:17.795Z,99492.59
2023-05-22T19:24:34.052Z,99497.84
2023-05-22T19:28:50.262Z,99488.78
2023-05-22T19:33:08.704Z,99501.91
2023-05-22T19:37:25.334Z,99498.00
2023-05-22T19:41:41.646Z,99507.69
2023-05-22T19:45:58.319Z,99503.47
2023-05-22T19:50:20.846Z,99509.50
2023-05-22T19:54:37.408Z,99518.78
2023-05-22T19:58:53.606Z,99515.84
2023-05-22T20:03:09.927Z,99513.22
2023-05-22T20:07:26.260Z,99523.50
2023-05-22T20:11:44.295Z,99524.75
2023-05-22T20:16:04.286Z,99522.22
2023-05-22T20:20:25.092Z,99527.06
2023-05-22T20:24:41.998Z,99523.00
2023-05-22T20:28:58.188Z,99520.31
2023-05-22T20:33:19.008Z,99517.28
2023-05-22T20:37:36.318Z,99524.97
2023-05-22T20:41:52.670Z,99516.59
2023-05-22T20:46:09.895Z,99511.16
2023-05-22T20:50:26.332Z,99521.06
2023-05-22T20:54:42.650Z,99524.22
2023-05-22T20:58:58.920Z,99518.44
2023-05-22T21:03:15.305Z,99524.59
2023-05-22T21:07:31.541Z,99522.28
2023-05-22T21:11:48.785Z,99528.06
2023-05-22T21:16:05.207Z,99522.09
2023-05-22T21:20:21.459Z,99522.56
2023-05-22T21:24:37.622Z,99519.00
2023-05-22T21:28:53.821Z,99526.97
2023-05-22T21:33:10.121Z,99526.72
2023-05-22T21:37:26.365Z,99524.94
2023-05-22T21:41:42.528Z,99528.75
2023-05-22T21:45:58.791Z,99530.31
2023-05-22T21:50:15.563Z,99529.84
2023-05-22T21:54:32.051Z,99532.81
2023-05-22T21:58:49.062Z,99528.41
2023-05-22T22:12:12.831Z,99530.50
2023-05-22T22:21:02.914Z,99527.19
2023-05-22T22:25:19.121Z,99513.47
2023-05-22T22:29:35.361Z,99516.75
2023-05-22T22:33:51.582Z,99523.47
2023-05-22T22:38:07.834Z,99521.72
2023-05-22T22:42:24.972Z,99529.47
2023-05-22T22:46:42.854Z,99530.34
2023-05-22T22:50:59.117Z,99514.72
2023-05-22T22:55:15.351Z,99507.44
2023-05-22T22:59:32.073Z,99509.88
2023-05-22T23:03:48.293Z,99499.22
2023-05-22T23:08:04.520Z,99505.09
2023-05-22T23:12:20.788Z,99507.38
2023-05-22T23:16:43.564Z,99513.34
2023-05-22T23:20:59.767Z,99504.19
2023-05-22T23:25:16.135Z,99502.56
2023-05-22T23:29:32.399Z,99505.06
2023-05-22T23:33:48.691Z,99505.13
2023-05-22T23:38:04.904Z,99502.81
2023-05-22T23:42:21.066Z,99513.00
2023-05-22T23:46:39.848Z,99512.06
2023-05-22T23:50:56.181Z,99509.16
2023-05-22T23:55:12.429Z,99511.41
2023-05-22T23:59:28.791Z,99505.59
